Time;durP1;ratioP1;P1;durP2;ratioP2;P2;SDS_P1;SDS_P2;PMS_P1;PMS_P2;Temp;Humidity;BMP_temperature;BMP_pressure;BME280_temperature;BME280_humidity;BME280_pressure;Samples;Min_cycle;Max_cycle;Signal;HPM_P1;HPM_P2
2022/01/23 00:02:13;;;;;;;3.03;2.00;;;;;;;;;;5033175;28;20114;-45
2022/01/23 00:04:39;;;;;;;5.35;2.20;;;;;;;;;;5033500;28;20030;-45
2022/01/23 00:07:08;;;;;;;4.80;1.80;;;;;;;;;;5033045;28;20565;-46
2022/01/23 00:09:34;;;;;;;3.08;2.33;;;;;;;;;;5033074;28;20021;-46
2022/01/23 00:12:05;;;;;;;3.67;2.10;;;;;;;;;;5032943;28;20044;-45
2022/01/23 00:17:23;;;;;;;2.20;2.00;;;;;;;;;;5033317;28;20041;-46
2022/01/23 00:19:49;;;;;;;4.15;2.35;;;;;;;;;;5032941;28;20025;-45
2022/01/23 00:22:15;;;;;;;3.05;2.25;;;;;;;;;;5033166;28;20116;-46
2022/01/23 00:32:46;;;;;;;2.38;1.90;;;;;;;;;;5033104;28;20069;-46
2022/01/23 00:35:12;;;;;;;3.63;2.05;;;;;;;;;;5032643;28;20029;-45
2022/01/23 00:37:38;;;;;;;2.55;1.70;;;;;;;;;;5032604;28;20029;-45
2022/01/23 00:40:05;;;;;;;2.70;1.95;;;15.10;93.50;;;;;;5032797;28;20459;-45
2022/01/23 00:42:32;;;;;;;2.83;1.98;;;;;;;;;;5032596;28;20104;-45
2022/01/23 00:45:43;;;;;;;3.42;2.22;;;;;;;;;;5032744;28;20029;-45
2022/01/23 00:47:49;;;;;;;3.13;2.00;;;;;;;;;;5029397;28;20116;-45
2022/01/23 00:50:15;;;;;;;3.22;2.00;;;;;;;;;;5032305;28;20040;-45
2022/01/23 00:52:41;;;;;;;2.00;1.80;;;;;;;;;;5031676;28;20029;-45
2022/01/23 00:55:07;;;;;;;2.40;1.92;;;;;;;;;;5032265;28;20025;-45
2022/01/23 00:57:33;;;;;;;4.18;2.00;;;;;;;;;;5032188;28;20396;-46
2022/01/23 01:00:07;;;;;;;4.30;2.33;;;15.00;90.80;;;;;;5032257;28;20030;-46
2022/01/23 01:02:33;;;;;;;3.13;1.88;;;;;;;;;;5032051;28;20060;-45
2022/01/23 01:04:59;;;;;;;2.17;1.92;;;;;;;;;;5032115;28;20097;-46
2022/01/23 01:07:25;;;;;;;2.65;1.90;;;;;;;;;;5032169;28;20037;-46
2022/01/23 01:09:53;;;;;;;3.72;2.13;;;;;;;;;;5032212;28;20048;-46
2022/01/23 01:12:24;;;;;;;2.17;1.80;;;;;;;;;;5032359;28;20064;-45
2022/01/23 01:31:27;;;;;;;2.22;2.03;;;;;;;;;;5032047;28;20037;-45
2022/01/23 01:34:00;;;;;;;2.58;1.90;;;;;;;;;;5032172;28;20021;-47
2022/01/23 01:36:35;;;;;;;4.22;1.70;;;;;;;;;;5032066;28;20392;-46
2022/01/23 01:39:01;;;;;;;4.60;1.48;;;;;;;;;;5032078;28;20104;-46
2022/01/23 01:41:27;;;;;;;2.20;1.60;;;;;;;;;;5031638;28;20021;-45
2022/01/23 01:43:54;;;;;;;4.97;2.15;;;;;;;;;;5031811;28;20105;-46
2022/01/23 01:46:20;;;;;;;2.22;1.85;;;;;;;;;;5031594;28;20144;-45
2022/01/23 01:48:46;;;;;;;2.55;1.52;;;;;;;;;;5031739;28;20029;-46
2022/01/23 01:51:15;;;;;;;1.75;1.52;;;14.80;92.30;;;;;;5031734;28;20112;-45
2022/01/23 01:53:51;;;;;;;2.37;1.60;;;;;;;;;;5031663;28;20052;-46
2022/01/23 01:56:17;;;;;;;3.40;1.92;;;;;;;;;;5031988;28;20461;-47
2022/01/23 02:50:35;;;;;;;1.85;1.55;;;;;;;;;;5035284;28;20120;-47
2022/01/23 02:55:35;;;;;;;1.63;1.52;;;;;;;;;;5034817;28;20044;-46
2022/01/23 02:58:05;;;;;;;2.60;1.55;;;;;;;;;;5034844;28;20037;-46
2022/01/23 03:00:36;;;;;;;2.90;1.77;;;;;;;;;;5034554;28;20064;-46
2022/01/23 03:03:12;;;;;;;1.83;1.50;;;14.70;92.40;;;;;;5034304;28;20073;-46
2022/01/23 03:05:40;;;;;;;2.25;1.80;;;;;;;;;;5034554;28;20037;-46
2022/01/23 03:11:14;;;;;;;1.83;1.73;;;;;;;;;;5014724;28;20037;-45
2022/01/23 03:24:44;;;;;;;1.50;1.40;;;;;;;;;;5034429;28;20415;-47
2022/01/23 03:27:49;;;;;;;1.65;1.23;;;;;;;;;;5033989;28;20033;-46
2022/01/23 03:30:23;;;;;;;1.42;1.30;;;;;;;;;;5033886;28;20091;-45
2022/01/23 03:32:51;;;;;;;1.67;1.40;;;;;;;;;;5033699;28;20021;-46
2022/01/23 03:35:17;;;;;;;1.58;1.48;;;;;;;;;;5033869;28;20461;-46
2022/01/23 03:37:43;;;;;;;2.30;1.40;;;;;;;;;;5033797;28;20104;-46
2022/01/23 03:40:10;;;;;;;2.42;1.60;;;;;;;;;;5033794;28;20068;-45
2022/01/23 03:42:38;;;;;;;1.55;1.40;;;;;;;;;;5033708;28;20499;-46
2022/01/23 03:49:30;;;;;;;1.48;1.30;;;;;;;;;;5033658;28;20036;-46
2022/01/23 03:50:43;;;;;;;1.70;1.52;;;14.50;93.40;;;;;;5033536;28;20498;-46
2022/01/23 03:53:09;;;;;;;3.97;1.95;;;;;;;;;;5033849;28;20424;-46
2022/01/23 03:55:35;;;;;;;1.38;1.10;;;;;;;;;;5033418;28;20030;-46
2022/01/23 03:58:01;;;;;;;1.95;1.40;;;;;;;;;;5033415;28;20484;-46
2022/01/23 04:00:27;;;;;;;1.92;1.38;;;;;;;;;;5033393;28;20109;-45
2022/01/23 04:02:53;;;;;;;1.73;1.40;;;;;;;;;;5033047;28;20057;-45
2022/01/23 04:05:19;;;;;;;2.00;1.48;;;;;;;;;;5033208;28;20041;-46
2022/01/23 04:07:46;;;;;;;2.55;1.85;;;;;;;;;;5033406;28;20037;-46
2022/01/23 04:10:16;;;;;;;2.10;1.40;;;;;;;;;;5033516;28;20176;-45
2022/01/23 04:12:59;;;;;;;1.65;1.40;;;;;;;;;;5033438;28;20447;-46
2022/01/23 04:15:38;;;;;;;1.33;1.20;;;;;;;;;;5033217;28;20033;-46
2022/01/23 04:45:24;;;;;;;2.22;1.50;;;;;;;;;;5032640;28;20072;-46
2022/01/23 05:01:33;;;;;;;1.55;1.45;;;;;;;;;;5032578;28;20088;-46
2022/01/23 05:04:24;;;;;;;1.70;1.10;;;;;;;;;;5032124;28;20064;-46
2022/01/23 05:06:57;;;;;;;2.25;1.30;;;;;;;;;;5031893;28;20045;-46
2022/01/23 05:09:23;;;;;;;1.73;1.40;;;;;;;;;;5032601;28;20075;-46
2022/01/23 05:11:54;;;;;;;1.10;1.00;;;14.40;93.70;;;;;;5032307;28;20036;-46
2022/01/23 05:14:27;;;;;;;1.23;1.10;;;;;;;;;;5032396;28;20013;-46
2022/01/23 05:16:53;;;;;;;1.98;1.40;;;;;;;;;;5032221;28;20025;-46
2022/01/23 05:19:20;;;;;;;2.10;1.77;;;;;;;;;;5032142;28;20523;-46
2022/01/23 05:24:41;;;;;;;1.67;1.33;;;;;;;;;;5020885;28;20033;-46
2022/01/23 05:27:09;;;;;;;2.50;1.52;;;14.40;93.80;;;;;;5031964;28;20445;-46
2022/01/23 05:29:35;;;;;;;1.83;1.38;;;;;;;;;;5032054;28;20465;-46
2022/01/23 05:32:03;;;;;;;2.50;1.38;;;;;;;;;;5031854;28;20041;-46
2022/01/23 05:34:29;;;;;;;2.50;1.23;;;;;;;;;;5031980;28;20026;-46
2022/01/23 05:36:55;;;;;;;1.25;1.15;;;;;;;;;;5031917;28;20040;-47
2022/01/23 05:39:23;;;;;;;1.55;1.40;;;;;;;;;;5034127;28;20388;-45
2022/01/23 05:42:04;;;;;;;2.00;1.60;;;14.40;92.00;;;;;;5036034;28;20025;-46
2022/01/23 05:44:30;;;;;;;1.52;1.35;;;;;;;;;;5035984;28;20033;-46
2022/01/23 05:46:56;;;;;;;2.40;1.33;;;;;;;;;;5035811;28;20041;-47
2022/01/23 05:49:22;;;;;;;2.97;1.55;;;;;;;;;;5035817;28;20407;-45
2022/01/23 05:51:48;;;;;;;4.18;1.67;;;;;;;;;;5035806;28;20041;-46
2022/01/23 05:54:14;;;;;;;1.30;1.20;;;;;;;;;;5035668;28;20029;-46
2022/01/23 05:56:40;;;;;;;1.75;1.58;;;;;;;;;;5035710;28;20036;-45
2022/01/23 05:59:06;;;;;;;1.67;1.30;;;;;;;;;;5035631;28;20025;-46
2022/01/23 06:01:32;;;;;;;1.95;1.75;;;;;;;;;;5035885;28;20033;-46
2022/01/23 06:03:58;;;;;;;2.33;1.42;;;;;;;;;;5035424;28;20124;-46
2022/01/23 06:06:24;;;;;;;1.52;1.00;;;;;;;;;;5035538;28;20048;-46
2022/01/23 06:08:50;;;;;;;1.90;1.42;;;;;;;;;;5035802;28;20028;-46
2022/01/23 06:11:16;;;;;;;2.22;1.30;;;14.60;93.70;;;;;;5035346;28;20500;-45
2022/01/23 06:13:42;;;;;;;1.65;1.20;;;;;;;;;;5035686;28;20025;-46
2022/01/23 06:16:08;;;;;;;1.25;0.90;;;;;;;;;;5035312;28;20025;-45
2022/01/23 06:18:38;;;;;;;1.42;1.00;;;;;;;;;;5035287;28;20028;-45
2022/01/23 06:21:04;;;;;;;2.42;1.33;;;;;;;;;;5035499;28;20112;-46
2022/01/23 06:23:31;;;;;;;1.90;1.08;;;;;;;;;;5035433;28;20392;-46
2022/01/23 06:25:57;;;;;;;1.65;1.00;;;;;;;;;;5035421;28;20045;-46
2022/01/23 06:28:49;;;;;;;1.38;0.90;;;15.10;90.30;;;;;;5035156;28;20096;-45
2022/01/23 06:31:15;;;;;;;1.05;0.95;;;;;;;;;;5035095;28;20120;-46
2022/01/23 06:33:41;;;;;;;1.95;1.10;;;;;;;;;;5035036;28;20101;-46
2022/01/23 06:36:07;;;;;;;1.75;1.08;;;;;;;;;;5035054;28;20071;-46
2022/01/23 06:38:35;;;;;;;1.10;0.93;;;;;;;;;;5034901;28;20030;-45
2022/01/23 06:41:01;;;;;;;1.75;0.80;;;;;;;;;;5034950;28;20021;-46
2022/01/23 06:43:27;;;;;;;1.30;0.82;;;;;;;;;;5034827;28;20051;-46
2022/01/23 06:45:53;;;;;;;1.23;0.77;;;;;;;;;;5034777;28;20110;-46
2022/01/23 06:48:19;;;;;;;1.42;1.02;;;;;;;;;;5034749;28;20080;-46
2022/01/23 06:50:45;;;;;;;0.77;0.75;;;;;;;;;;5033376;28;20044;-46
2022/01/23 06:53:11;;;;;;;1.85;0.90;;;;;;;;;;5034642;28;20033;-45
2022/01/23 06:55:37;;;;;;;1.63;1.20;;;;;;;;;;5034860;28;20022;-46
2022/01/23 06:58:03;;;;;;;0.98;0.82;;;;;;;;;;5034560;28;20069;-46
2022/01/23 07:00:31;;;;;;;1.38;0.77;;;;;;;;;;5034514;28;20053;-46
2022/01/23 07:02:57;;;;;;;1.77;1.02;;;;;;;;;;5032998;28;20045;-45
2022/01/23 07:05:23;;;;;;;0.93;0.80;;;;;;;;;;5034301;28;20361;-45
2022/01/23 07:07:49;;;;;;;0.98;0.88;;;;;;;;;;5034386;28;20100;-45
2022/01/23 07:10:16;;;;;;;1.15;0.80;;;;;;;;;;5034415;28;20457;-45
2022/01/23 07:12:42;;;;;;;1.05;0.88;;;;;;;;;;5034251;28;20030;-46
2022/01/23 07:15:08;;;;;;;0.98;0.88;;;15.70;90.80;;;;;;5034259;28;20541;-44
2022/01/23 07:17:41;;;;;;;0.98;0.88;;;15.60;92.60;;;;;;5034451;28;20388;-45
2022/01/23 07:20:08;;;;;;;1.25;1.15;;;15.70;91.40;;;;;;5034259;28;20385;-45
2022/01/23 07:22:34;;;;;;;1.55;0.80;;;;;;;;;;5034198;28;20030;-46
2022/01/23 07:25:02;;;;;;;1.10;0.93;;;;;;;;;;5034175;28;20083;-45
2022/01/23 07:27:32;;;;;;;1.60;0.90;;;;;;;;;;5033865;28;20038;-46
2022/01/23 07:29:58;;;;;;;1.33;1.00;;;;;;;;;;5034036;28;20037;-45
2022/01/23 07:32:24;;;;;;;0.95;0.95;;;;;;;;;;5033927;28;20029;-45
2022/01/23 07:34:50;;;;;;;1.40;1.20;;;;;;;;;;5033841;28;20048;-46
2022/01/23 07:37:16;;;;;;;1.85;1.17;;;;;;;;;;5033875;28;20480;-45
2022/01/23 07:39:42;;;;;;;0.63;0.60;;;;;;;;;;5033848;28;20387;-45
2022/01/23 07:42:08;;;;;;;1.10;0.75;;;;;;;;;;5033779;28;20026;-44
2022/01/23 07:44:34;;;;;;;1.25;1.00;;;;;;;;;;5033627;28;20392;-45
2022/01/23 07:47:00;;;;;;;1.30;0.80;;;;;;;;;;5033498;28;20038;-45
2022/01/23 07:49:26;;;;;;;1.30;0.88;;;;;;;;;;5033594;28;20087;-45
2022/01/23 07:51:52;;;;;;;1.00;0.98;;;;;;;;;;5033544;28;20033;-46
2022/01/23 07:54:18;;;;;;;1.73;1.08;;;;;;;;;;5033712;28;20029;-45
2022/01/23 07:56:44;;;;;;;0.70;0.68;;;;;;;;;;5033505;28;20021;-46
2022/01/23 07:59:10;;;;;;;0.93;0.80;;;;;;;;;;5033539;28;20033;-46
2022/01/23 08:01:39;;;;;;;1.30;1.00;;;;;;;;;;5033064;28;20041;-45
2022/01/23 08:04:06;;;;;;;1.38;0.93;;;15.40;92.90;;;;;;5033297;28;20064;-46
2022/01/23 08:06:38;;;;;;;1.05;0.95;;;;;;;;;;5033237;28;20116;-45
2022/01/23 08:09:04;;;;;;;1.77;1.10;;;;;;;;;;5033488;28;20032;-46
2022/01/23 08:11:30;;;;;;;2.17;1.20;;;;;;;;;;5033182;28;20423;-45
2022/01/23 08:13:56;;;;;;;1.25;1.08;;;;;;;;;;5033077;28;20138;-46
2022/01/23 08:16:22;;;;;;;1.42;1.00;;;;;;;;;;5033237;28;20033;-46
2022/01/23 08:18:48;;;;;;;1.08;0.98;;;;;;;;;;5033341;28;20053;-45
2022/01/23 08:21:14;;;;;;;1.20;1.00;;;;;;;;;;5033303;28;20060;-46
2022/01/23 08:23:41;;;;;;;2.03;0.80;;;;;;;;;;5033427;28;20383;-46
2022/01/23 08:26:07;;;;;;;1.02;0.98;;;;;;;;;;5033298;28;20071;-45
2022/01/23 08:28:33;;;;;;;1.33;1.20;;;;;;;;;;5033287;28;20045;-46
2022/01/23 08:30:59;;;;;;;2.22;1.30;;;;;;;;;;5032950;28;20484;-46
2022/01/23 08:33:25;;;;;;;1.00;0.90;;;;;;;;;;5032912;28;20067;-45
2022/01/23 08:35:56;;;;;;;1.17;1.00;;;;;;;;;;5033059;28;20052;-46
2022/01/23 08:38:22;;;;;;;1.92;1.15;;;;;;;;;;5032596;28;20055;-45
2022/01/23 08:41:49;;;;;;;2.00;1.30;;;;;;;;;;5032923;28;20149;-46
2022/01/23 08:43:34;;;;;;;2.05;1.17;;;;;;;;;;5032633;28;20029;-45
2022/01/23 08:46:00;;;;;;;2.35;1.50;;;;;;;;;;5032523;28;20472;-45
2022/01/23 08:48:26;;;;;;;3.17;1.30;;;;;;;;;;5032493;28;20114;-45
2022/01/23 08:50:51;;;;;;;2.03;1.42;;;;;;;;;;5032521;28;20025;-46
2022/01/23 08:53:17;;;;;;;2.10;1.80;;;;;;;;;;5032519;28;20033;-46
2022/01/23 08:55:43;;;;;;;2.60;1.98;;;;;;;;;;5032375;28;20080;-45
2022/01/23 08:58:09;;;;;;;2.28;1.80;;;;;;;;;;5032263;28;20025;-47
2022/01/23 09:00:35;;;;;;;4.55;2.33;;;;;;;;;;5032445;28;20035;-46
2022/01/23 09:03:01;;;;;;;2.13;1.90;;;;;;;;;;5032221;28;20080;-47
2022/01/23 09:05:28;;;;;;;5.47;2.30;;;;;;;;;;5032381;28;20060;-47
2022/01/23 09:07:54;;;;;;;3.65;1.83;;;;;;;;;;5032469;28;20432;-45
2022/01/23 09:10:25;;;;;;;3.80;2.00;;;;;;;;;;5032696;28;20033;-46
2022/01/23 09:15:30;;;;;;;2.60;1.88;;;;;;;;;;5032436;28;20033;-45
2022/01/23 09:17:56;;;;;;;1.77;1.50;;;;;;;;;;5032325;28;20075;-47
2022/01/23 09:20:22;;;;;;;2.80;1.70;;;;;;;;;;5032343;28;20423;-47
2022/01/23 09:22:48;;;;;;;2.15;1.90;;;;;;;;;;5032250;28;20029;-48
2022/01/23 09:25:14;;;;;;;7.05;1.70;;;;;;;;;;5032254;28;20468;-47
2022/01/23 09:27:40;;;;;;;2.90;1.95;;;;;;;;;;5032142;28;20034;-46
2022/01/23 09:30:17;;;;;;;4.30;1.95;;;16.10;92.10;;;;;;5032533;28;20018;-46
2022/01/23 09:32:44;;;;;;;2.38;1.77;;;;;;;;;;5032225;28;20499;-47
2022/01/23 09:35:14;;;;;;;2.88;1.88;;;16.20;89.10;;;;;;5032150;28;20385;-47
2022/01/23 09:37:41;;;;;;;2.78;1.73;;;;;;;;;;5032147;28;20049;-46
2022/01/23 09:40:08;;;;;;;4.03;1.52;;;16.30;91.20;;;;;;5032108;28;20152;-45
2022/01/23 09:42:58;;;;;;;1.92;1.70;;;16.40;92.40;;;;;;5031970;28;20361;-46
2022/01/23 09:45:25;;;;;;;3.40;2.00;;;;;;;;;;5023053;28;20052;-46
2022/01/23 09:47:53;;;;;;;2.50;1.27;;;16.40;91.10;;;;;;5032119;28;20029;-47
2022/01/23 09:50:19;;;;;;;2.08;1.95;;;;;;;;;;5032013;28;20057;-47
2022/01/23 09:52:45;;;;;;;2.03;1.65;;;;;;;;;;5031977;28;20087;-47
2022/01/23 09:55:12;;;;;;;5.10;1.77;;;16.50;91.70;;;;;;5031964;28;20357;-45
2022/01/23 09:57:47;;;;;;;2.60;1.67;;;16.60;87.50;;;;;;5032198;28;20384;-46
2022/01/23 10:00:16;;;;;;;4.13;1.63;;;16.50;91.80;;;;;;5031872;28;20036;-48
2022/01/23 10:02:43;;;;;;;1.98;1.67;;;16.50;91.50;;;;;;5031836;28;20037;-46
2022/01/23 10:05:09;;;;;;;3.22;2.20;;;16.50;89.40;;;;;;5031898;28;20022;-46
2022/01/23 10:07:41;;;;;;;2.65;1.67;;;16.50;87.00;;;;;;5032059;28;20095;-46
2022/01/23 10:10:14;;;;;;;3.85;2.22;;;;;;;;;;5031818;28;20086;-45
2022/01/23 10:13:03;;;;;;;2.78;1.92;;;16.50;91.70;;;;;;5032177;28;20033;-46
2022/01/23 10:15:31;;;;;;;2.10;1.90;;;16.40;91.70;;;;;;5031827;28;20110;-46
2022/01/23 10:17:58;;;;;;;2.08;1.80;;;16.50;90.00;;;;;;5031984;28;20029;-47
2022/01/23 10:20:25;;;;;;;3.25;1.50;;;16.60;90.40;;;;;;5031770;28;20056;-45
2022/01/23 10:22:52;;;;;;;2.88;1.70;;;;;;;;;;5031698;28;20557;-46
2022/01/23 10:25:29;;;;;;;2.15;1.40;;;16.60;86.90;;;;;;5033349;28;20033;-45
2022/01/23 10:28:08;;;;;;;1.65;1.25;;;16.60;87.00;;;;;;5035438;28;20407;-45
2022/01/23 10:30:41;;;;;;;2.08;1.38;;;16.70;87.00;;;;;;5035295;28;20033;-44
2022/01/23 10:33:16;;;;;;;3.13;1.45;;;16.80;91.70;;;;;;5035142;28;20026;-44
2022/01/23 10:36:04;;;;;;;2.92;1.73;;;16.70;87.50;;;;;;5035382;28;20076;-46
2022/01/23 10:38:56;;;;;;;3.42;1.50;;;16.60;91.90;;;;;;5034890;28;20022;-46
2022/01/23 10:41:31;;;;;;;2.63;1.88;;;;;;;;;;5035369;28;20025;-45
2022/01/23 10:47:31;;;;;;;6.10;1.75;;;16.80;86.90;;;;;;5034733;28;20564;-46
2022/01/23 10:50:00;;;;;;;2.17;1.55;;;16.80;91.30;;;;;;5034735;28;20030;-48
2022/01/23 10:52:26;;;;;;;2.72;1.58;;;;;;;;;;5034593;28;20034;-46
2022/01/23 10:54:52;;;;;;;1.65;1.42;;;;;;;;;;5034595;28;20057;-45
2022/01/23 10:57:18;;;;;;;3.60;1.50;;;;;;;;;;5034707;28;20431;-46
2022/01/23 10:59:49;;;;;;;4.00;1.60;;;16.90;86.50;;;;;;5034639;28;20021;-47
2022/01/23 11:02:21;;;;;;;4.53;1.50;;;;;;;;;;5034459;28;20047;-46
2022/01/23 11:04:51;;;;;;;3.25;1.48;;;17.00;86.70;;;;;;5034867;28;20042;-47
2022/01/23 11:07:17;;;;;;;3.22;1.20;;;;;;;;;;5034441;28;20128;-48
2022/01/23 11:09:43;;;;;;;2.78;1.90;;;;;;;;;;5034701;28;20032;-47
2022/01/23 11:12:27;;;;;;;1.33;1.23;;;;;;;;;;5034443;28;20030;-48
2022/01/23 11:17:54;;;;;;;3.97;1.60;;;17.10;86.80;;;;;;5034569;28;20095;-48
2022/01/23 11:20:32;;;;;;;2.65;1.70;;;17.00;86.70;;;;;;5034323;28;20021;-44
2022/01/23 11:23:17;;;;;;;1.73;0.98;;;17.00;87.10;;;;;;5032919;28;20116;-45
2022/01/23 11:25:43;;;;;;;1.30;1.20;;;;;;;;;;5034402;28;20439;-44
2022/01/23 11:28:09;;;;;;;1.80;1.48;;;;;;;;;;5034127;28;20026;-45
2022/01/23 11:30:41;;;;;;;4.40;1.58;;;17.50;86.70;;;;;;5034074;28;20041;-46
2022/01/23 11:33:09;;;;;;;3.72;1.48;;;;;;;;;;5034077;28;20031;-46
2022/01/23 11:35:35;;;;;;;2.10;1.40;;;;;;;;;;5034122;28;20032;-45
2022/01/23 11:38:02;;;;;;;1.58;1.33;;;;;;;;;;5033445;28;20029;-45
2022/01/23 11:54:03;;;;;;;2.70;1.30;;;17.00;86.10;;;;;;5033604;28;20037;-47
2022/01/23 11:56:31;;;;;;;2.47;1.80;;;;;;;;;;5033614;28;20026;-44
2022/01/23 11:59:19;;;;;;;4.50;1.60;;;17.00;87.00;;;;;;5033571;28;20029;-46
2022/01/23 12:02:08;;;;;;;2.17;1.48;;;17.00;91.20;;;;;;5033353;28;20025;-45
2022/01/23 12:04:34;;;;;;;2.88;1.50;;;;;;;;;;5033375;28;20084;-45
2022/01/23 12:07:12;;;;;;;1.83;1.30;;;17.10;86.70;;;;;;5033546;28;20198;-45
2022/01/23 12:09:41;;;;;;;1.92;1.65;;;17.00;91.10;;;;;;5033513;28;20126;-45
2022/01/23 12:18:21;;;;;;;1.83;1.65;;;17.00;86.20;;;;;;5033514;28;20395;-45
2022/01/23 12:20:49;;;;;;;1.90;1.80;;;16.80;91.10;;;;;;5033081;28;20469;-45
2022/01/23 12:23:16;;;;;;;1.73;1.52;;;;;;;;;;5033108;28;20033;-46
2022/01/23 12:25:50;;;;;;;2.95;1.67;;;16.90;85.90;;;;;;5033169;28;20041;-45
2022/01/23 12:28:17;;;;;;;2.38;1.77;;;;;;;;;;5032958;28;20030;-45
2022/01/23 12:30:45;;;;;;;2.10;1.63;;;16.90;91.00;;;;;;5033162;28;20030;-45
2022/01/23 12:33:20;;;;;;;2.60;1.38;;;17.00;85.80;;;;;;5031783;28;20038;-45
2022/01/23 12:35:52;;;;;;;1.52;1.40;;;17.00;91.20;;;;;;5033153;28;20060;-45
2022/01/23 12:38:25;;;;;;;1.50;1.38;;;17.00;91.00;;;;;;5033159;28;20429;-45
2022/01/23 12:40:51;;;;;;;3.67;1.60;;;;;;;;;;5032785;28;20486;-45
2022/01/23 12:43:24;;;;;;;1.73;1.58;;;17.00;84.80;;;;;;5032830;28;20057;-46
2022/01/23 12:45:52;;;;;;;2.05;1.60;;;;;;;;;;5033283;28;20353;-46
2022/01/23 12:48:27;;;;;;;2.50;1.60;;;17.30;84.90;;;;;;5031852;28;20028;-46
2022/01/23 12:51:01;;;;;;;3.95;1.63;;;17.30;84.40;;;;;;5033028;28;20037;-51
2022/01/23 12:53:47;;;;;;;3.17;1.95;;;17.20;84.10;;;;;;5032726;28;20030;-50
2022/01/23 12:56:16;;;;;;;2.17;1.77;;;17.50;90.40;;;;;;5032679;28;20569;-49
2022/01/23 12:58:50;;;;;;;2.22;1.50;;;18.10;90.60;;;;;;5032566;28;20501;-49
2022/01/23 13:01:24;;;;;;;1.50;1.20;;;17.60;90.10;;;;;;5032574;28;20033;-49
2022/01/23 13:03:55;;;;;;;1.42;1.33;;;17.70;90.50;;;;;;5032384;28;20130;-51
2022/01/23 13:06:32;;;;;;;2.10;1.42;;;17.80;84.20;;;;;;5032439;28;20037;-49
2022/01/23 13:12:13;;;;;;;1.35;1.15;;;17.80;90.40;;;;;;5032738;28;20041;-51
2022/01/23 13:14:47;;;;;;;1.65;1.40;;;17.90;84.20;;;;;;5032369;28;20021;-49
2022/01/23 13:30:50;;;;;;;2.08;1.50;;;18.20;83.50;;;;;;5032469;28;20056;-51
2022/01/23 13:33:21;;;;;;;1.83;1.40;;;18.10;90.00;;;;;;5032283;28;20140;-55
2022/01/23 13:35:52;;;;;;;1.38;1.27;;;;;;;;;;5031952;28;20049;-51
2022/01/23 13:38:23;;;;;;;1.95;1.63;;;18.10;89.10;;;;;;5032252;28;20079;-51
2022/01/23 13:40:59;;;;;;;1.90;1.55;;;;;;;;;;5032206;28;20033;-51
2022/01/23 13:51:55;;;;;;;1.75;1.45;;;;;;;;;;5031794;28;20039;-51
2022/01/23 14:00:06;;;;;;;1.77;1.42;;;18.20;82.70;;;;;;5032695;28;20098;-49
2022/01/23 14:02:39;;;;;;;4.40;1.75;;;18.30;83.10;;;;;;5035519;28;20552;-50
2022/01/23 14:05:11;;;;;;;2.20;1.48;;;18.20;90.10;;;;;;5035569;28;20376;-45
2022/01/23 14:07:37;;;;;;;2.78;1.90;;;;;;;;;;5035384;28;20037;-45
2022/01/23 14:10:15;;;;;;;2.08;1.75;;;18.10;87.90;;;;;;5035519;28;20104;-47
2022/01/23 14:12:42;;;;;;;2.55;1.92;;;18.10;89.30;;;;;;5035404;28;20232;-46
2022/01/23 14:15:14;;;;;;;1.90;1.80;;;17.90;82.80;;;;;;5035686;28;20119;-46
2022/01/23 14:17:42;;;;;;;2.72;1.90;;;18.00;86.90;;;;;;5035914;28;20025;-46
2022/01/23 14:20:12;;;;;;;2.20;1.88;;;18.10;90.00;;;;;;5035604;28;20032;-45
2022/01/23 14:22:41;;;;;;;2.72;2.38;;;17.90;90.00;;;;;;5035601;28;20029;-46
2022/01/23 14:25:13;;;;;;;2.65;2.20;;;17.90;83.50;;;;;;5035837;28;20029;-45
2022/01/23 14:27:40;;;;;;;3.15;2.55;;;;;;;;;;5035278;28;20044;-46
2022/01/23 14:30:20;;;;;;;2.88;2.38;;;17.80;90.20;;;;;;5035345;28;20026;-46
2022/01/23 14:32:50;;;;;;;2.38;1.98;;;;;;;;;;5035643;28;20021;-47
2022/01/23 14:35:25;;;;;;;2.30;2.10;;;17.80;83.40;;;;;;5035254;28;20484;-46
2022/01/23 14:37:52;;;;;;;3.38;2.70;;;;;;;;;;5035211;28;20044;-46
2022/01/23 14:40:27;;;;;;;4.47;2.80;;;17.60;83.30;;;;;;5035372;28;20037;-45
2022/01/23 14:43:04;;;;;;;3.03;2.15;;;17.70;83.30;;;;;;5035196;28;20037;-45
2022/01/23 14:45:32;;;;;;;3.25;2.55;;;17.60;90.00;;;;;;5034976;28;20025;-46
2022/01/23 14:47:58;;;;;;;2.58;2.25;;;;;;;;;;5035089;28;20029;-46
2022/01/23 14:50:25;;;;;;;3.60;2.47;;;;;;;;;;5034917;28;20033;-46
2022/01/23 14:52:52;;;;;;;3.60;2.28;;;;;;;;;;5035074;28;20384;-45
2022/01/23 14:55:20;;;;;;;3.33;2.50;;;;;;;;;;5034932;28;20417;-45
2022/01/23 14:57:46;;;;;;;3.65;2.42;;;;;;;;;;5035214;28;20037;-46
2022/01/23 15:00:14;;;;;;;3.75;2.50;;;17.50;90.00;;;;;;5034920;28;20029;-45
2022/01/23 15:02:41;;;;;;;3.40;2.75;;;17.50;89.80;;;;;;5034608;28;20120;-45
2022/01/23 15:05:07;;;;;;;2.65;2.40;;;;;;;;;;5034774;28;20113;-45
2022/01/23 15:07:37;;;;;;;5.65;2.60;;;17.50;83.70;;;;;;5034777;28;20047;-46
2022/01/23 15:10:06;;;;;;;2.63;2.28;;;17.50;90.10;;;;;;5034677;28;20053;-46
2022/01/23 15:12:32;;;;;;;3.03;2.75;;;;;;;;;;5033567;28;20385;-46
2022/01/23 15:14:58;;;;;;;2.92;2.60;;;;;;;;;;5033267;28;20022;-45
2022/01/23 15:17:26;;;;;;;3.80;2.83;;;;;;;;;;5034527;28;20503;-46
2022/01/23 15:19:52;;;;;;;3.63;2.70;;;;;;;;;;5034565;28;20399;-45
2022/01/23 15:22:18;;;;;;;3.13;2.63;;;;;;;;;;5034660;28;20028;-45
2022/01/23 15:24:45;;;;;;;4.00;2.85;;;;;;;;;;5034293;28;20022;-46
2022/01/23 15:27:11;;;;;;;2.70;2.35;;;;;;;;;;5034213;28;20492;-45
2022/01/23 15:29:37;;;;;;;3.25;2.65;;;;;;;;;;5034241;28;20029;-46
2022/01/23 15:32:03;;;;;;;3.20;2.65;;;;;;;;;;5034319;28;20029;-45
2022/01/23 15:34:30;;;;;;;3.92;2.70;;;;;;;;;;5034227;28;20022;-46
2022/01/23 15:36:56;;;;;;;2.83;2.63;;;;;;;;;;5034232;28;20048;-46
2022/01/23 15:39:25;;;;;;;4.40;3.03;;;;;;;;;;5034081;28;20026;-46
2022/01/23 15:41:51;;;;;;;3.28;2.78;;;;;;;;;;5034102;28;20025;-46
2022/01/23 15:44:17;;;;;;;2.85;2.65;;;;;;;;;;5033864;28;20029;-46
2022/01/23 15:46:43;;;;;;;3.80;2.78;;;;;;;;;;5033769;28;20041;-46
2022/01/23 15:49:10;;;;;;;3.63;2.97;;;17.20;87.50;;;;;;5034041;28;20025;-47
2022/01/23 15:51:36;;;;;;;4.32;2.97;;;;;;;;;;5033846;28;20029;-45
2022/01/23 15:54:02;;;;;;;4.05;3.22;;;;;;;;;;5033534;28;20025;-44
2022/01/23 15:56:28;;;;;;;4.00;3.20;;;;;;;;;;5033399;28;20044;-44
2022/01/23 15:58:54;;;;;;;4.80;3.47;;;;;;;;;;5033624;28;20026;-44
2022/01/23 16:01:20;;;;;;;6.55;3.65;;;;;;;;;;5033228;28;20576;-44
2022/01/23 16:03:46;;;;;;;4.50;2.92;;;;;;;;;;5033079;28;20057;-44
2022/01/23 16:06:12;;;;;;;4.57;2.85;;;;;;;;;;5033127;28;20037;-44
2022/01/23 16:08:39;;;;;;;3.40;2.72;;;;;;;;;;5033143;28;20025;-45
2022/01/23 16:11:06;;;;;;;4.75;2.40;;;17.10;90.30;;;;;;5033536;28;20029;-44
2022/01/23 16:13:32;;;;;;;4.18;2.85;;;;;;;;;;5033346;28;20096;-44
2022/01/23 16:15:59;;;;;;;3.88;3.10;;;;;;;;;;5033182;28;20522;-45
2022/01/23 16:18:25;;;;;;;5.50;2.90;;;;;;;;;;5033000;28;20037;-44
2022/01/23 16:20:52;;;;;;;4.32;2.63;;;;;;;;;;5032882;28;20061;-44
2022/01/23 16:23:18;;;;;;;8.60;3.15;;;;;;;;;;5032724;28;20029;-44
2022/01/23 16:25:44;;;;;;;4.60;2.40;;;;;;;;;;5032804;28;20036;-44
2022/01/23 16:28:10;;;;;;;4.45;2.83;;;;;;;;;;5032751;28;20030;-44
2022/01/23 16:31:02;;;;;;;3.33;2.13;;;17.40;90.70;;;;;;5032822;28;20061;-44
2022/01/23 16:33:29;;;;;;;3.35;2.13;;;;;;;;;;5029970;28;20476;-44
2022/01/23 16:35:55;;;;;;;3.42;2.40;;;;;;;;;;5032576;28;20033;-44
2022/01/23 16:38:22;;;;;;;5.05;2.60;;;17.60;87.50;;;;;;5032676;28;20033;-44
2022/01/23 16:40:54;;;;;;;3.00;2.38;;;17.60;90.40;;;;;;5014841;28;20147;-44
2022/01/23 16:43:20;;;;;;;2.88;2.50;;;;;;;;;;5032739;28;20078;-45
2022/01/23 16:45:46;;;;;;;10.07;2.30;;;;;;;;;;5032407;28;20468;-45
2022/01/23 16:48:12;;;;;;;3.05;2.55;;;;;;;;;;5032458;28;20029;-44
2022/01/23 16:50:39;;;;;;;3.20;2.45;;;;;;;;;;5032551;28;20030;-45
2022/01/23 16:53:06;;;;;;;3.70;2.50;;;;;;;;;;5032792;28;20040;-44
2022/01/23 16:55:32;;;;;;;3.33;2.40;;;;;;;;;;5032410;28;20037;-44
2022/01/23 16:57:57;;;;;;;3.20;2.30;;;;;;;;;;5032725;28;20096;-44
2022/01/23 17:00:23;;;;;;;2.38;2.17;;;;;;;;;;5032418;28;20030;-44
2022/01/23 17:02:49;;;;;;;3.42;2.33;;;;;;;;;;5032108;28;20570;-45
2022/01/23 17:05:16;;;;;;;3.25;2.15;;;;;;;;;;5031990;28;20087;-45
2022/01/23 17:07:43;;;;;;;2.60;2.13;;;;;;;;;;5032184;28;20041;-45
2022/01/23 17:10:09;;;;;;;5.10;2.58;;;;;;;;;;5032090;28;20022;-45
2022/01/23 17:12:35;;;;;;;2.33;1.90;;;;;;;;;;5032081;28;20038;-44
2022/01/23 17:15:01;;;;;;;5.65;2.20;;;;;;;;;;5032079;28;20026;-45
2022/01/23 17:17:27;;;;;;;2.53;2.05;;;;;;;;;;5032150;28;20462;-44
2022/01/23 17:19:54;;;;;;;5.00;2.33;;;;;;;;;;5032214;28;20113;-44
2022/01/23 17:22:20;;;;;;;4.20;3.17;;;;;;;;;;5032155;28;20166;-45
2022/01/23 17:24:46;;;;;;;3.53;2.80;;;;;;;;;;5032101;28;20499;-47
2022/01/23 17:27:12;;;;;;;3.13;2.72;;;;;;;;;;5031977;28;20042;-44
2022/01/23 17:29:38;;;;;;;3.03;2.72;;;;;;;;;;5031979;28;20036;-44
2022/01/23 17:32:09;;;;;;;3.00;2.67;;;18.00;89.30;;;;;;5031868;28;20059;-44
2022/01/23 17:34:40;;;;;;;3.70;2.72;;;18.10;82.90;;;;;;5034367;28;20021;-44
2022/01/23 17:37:06;;;;;;;3.15;2.60;;;;;;;;;;5038829;28;20056;-44
2022/01/23 17:39:32;;;;;;;5.22;2.90;;;;;;;;;;5038579;28;20040;-44
2022/01/23 17:41:58;;;;;;;3.45;2.85;;;;;;;;;;5038576;28;20029;-44